createdAt,value
2018-04-23T00:00:37.468Z,16.80
2018-04-23T00:03:04.962Z,16.90
2018-04-23T00:05:33.208Z,16.80
2018-04-23T00:08:00.673Z,16.80
2018-04-23T00:10:28.130Z,16.80
2018-04-23T00:12:55.681Z,16.90
2018-04-23T00:15:23.144Z,16.90
2018-04-23T00:17:50.624Z,16.70
2018-04-23T00:20:18.078Z,16.70
2018-04-23T00:22:45.540Z,16.60
2018-04-23T00:25:13.773Z,16.50
2018-04-23T00:27:41.241Z,16.50
2018-04-23T00:30:12.552Z,16.50
2018-04-23T00:32:40.028Z,16.50
2018-04-23T00:35:07.500Z,16.40
2018-04-23T00:37:34.964Z,16.40
2018-04-23T00:40:02.434Z,16.40
2018-04-23T00:42:29.897Z,16.20
2018-04-23T00:44:57.356Z,16.10
2018-04-23T00:47:24.826Z,16.00
2018-04-23T00:49:52.296Z,16.00
2018-04-23T00:52:20.926Z,15.90
2018-04-23T00:54:48.372Z,15.90
2018-04-23T00:57:15.840Z,15.90
2018-04-23T00:59:43.292Z,15.90
2018-04-23T01:02:10.773Z,16.00
2018-04-23T01:04:38.229Z,15.90
2018-04-23T01:07:05.688Z,15.90
2018-04-23T01:09:33.164Z,15.90
2018-04-23T01:12:00.628Z,15.90
2018-04-23T01:14:28.088Z,15.80
2018-04-23T01:16:55.547Z,15.80
2018-04-23T01:19:23.008Z,15.70
2018-04-23T01:21:50.480Z,15.60
2018-04-23T01:24:18.713Z,15.70
2018-04-23T01:26:46.180Z,15.60
2018-04-23T01:29:13.645Z,15.60
2018-04-23T01:31:41.115Z,15.60
2018-04-23T01:34:08.580Z,15.50
2018-04-23T01:36:36.040Z,15.60
2018-04-23T01:39:03.510Z,15.50
2018-04-23T01:41:31.733Z,15.40
2018-04-23T01:43:59.212Z,15.40
2018-04-23T01:46:26.672Z,15.30
2018-04-23T01:48:54.135Z,15.30
2018-04-23T01:51:21.597Z,15.30
2018-04-23T01:53:49.069Z,15.30
2018-04-23T01:56:17.309Z,15.10
2018-04-23T01:58:44.782Z,15.10
2018-04-23T02:01:12.240Z,15.00
2018-04-23T02:03:39.712Z,14.80
2018-04-23T02:06:07.181Z,14.70
2018-04-23T02:08:35.440Z,14.40
2018-04-23T02:11:02.896Z,14.40
2018-04-23T02:13:30.368Z,14.40
2018-04-23T02:15:57.828Z,14.30
2018-04-23T02:18:25.308Z,14.30
2018-04-23T02:20:52.772Z,14.30
2018-04-23T02:23:20.245Z,14.40
2018-04-23T02:25:47.703Z,14.50
2018-04-23T02:28:15.177Z,14.60
2018-04-23T02:30:42.632Z,14.60
2018-04-23T02:33:10.100Z,14.70
2018-04-23T02:35:37.565Z,14.70
2018-04-23T02:38:05.042Z,14.70
2018-04-23T02:40:32.492Z,14.70
2018-04-23T02:42:59.962Z,14.70
2018-04-23T02:45:27.432Z,14.70
2018-04-23T02:47:55.677Z,14.60
2018-04-23T02:50:23.135Z,14.60
2018-04-23T02:52:50.608Z,14.70
2018-04-23T02:55:18.070Z,14.60
2018-04-23T02:57:45.538Z,14.60
2018-04-23T03:00:12.999Z,14.60
2018-04-23T03:02:41.239Z,14.70
2018-04-23T03:05:08.702Z,14.70
2018-04-23T03:07:36.168Z,14.70
2018-04-23T03:10:03.630Z,14.70
2018-04-23T03:12:31.100Z,14.70
2018-04-23T03:14:58.566Z,14.70
2018-04-23T03:17:26.045Z,14.80
2018-04-23T03:19:54.259Z,14.90
2018-04-23T03:22:21.736Z,15.00
2018-04-23T03:24:49.197Z,15.00
2018-04-23T03:27:16.659Z,15.10
2018-04-23T03:29:44.113Z,15.00
2018-04-23T03:32:11.572Z,14.90
2018-04-23T03:34:39.036Z,15.10
2018-04-23T03:37:06.550Z,15.40
2018-04-23T03:39:33.968Z,15.80
2018-04-23T03:42:01.428Z,16.00
2018-04-23T03:44:29.701Z,15.90
2018-04-23T03:46:57.128Z,15.90
2018-04-23T03:49:24.608Z,16.00
2018-04-23T03:51:52.058Z,15.70
2018-04-23T03:54:19.526Z,15.60
2018-04-23T03:56:46.971Z,15.50
2018-04-23T03:59:14.451Z,15.40
2018-04-23T04:01:41.905Z,15.30
2018-04-23T04:04:09.371Z,15.20
2018-04-23T04:06:37.593Z,15.20
2018-04-23T04:09:05.057Z,15.30
2018-04-23T04:11:32.513Z,15.20
2018-04-23T04:14:11.820Z,15.30
2018-04-23T04:16:51.297Z,15.40
2018-04-23T04:19:18.748Z,15.50
2018-04-23T04:21:46.208Z,15.60
2018-04-23T04:24:13.683Z,15.70
2018-04-23T04:26:41.136Z,15.80
2018-04-23T04:29:09.437Z,16.00
2018-04-23T04:31:36.919Z,16.00
2018-04-23T04:34:05.153Z,16.00
2018-04-23T04:36:32.616Z,16.00
2018-04-23T04:39:00.084Z,16.00
2018-04-23T04:41:27.551Z,16.10
2018-04-23T04:43:55.088Z,16.10
2018-04-23T04:46:23.274Z,16.10
2018-04-23T04:48:50.739Z,16.10
2018-04-23T04:51:18.211Z,16.10
2018-04-23T04:53:45.681Z,16.10
2018-04-23T04:56:13.904Z,16.10
2018-04-23T04:58:41.367Z,16.10
2018-04-23T05:01:08.841Z,16.10
2018-04-23T05:03:36.303Z,16.10
2018-04-23T05:06:03.777Z,16.10
2018-04-23T05:08:31.236Z,16.20
2018-04-23T05:10:59.485Z,16.20
2018-04-23T05:13:26.964Z,16.20
2018-04-23T05:15:54.458Z,16.20
2018-04-23T05:18:21.926Z,16.20
2018-04-23T05:20:49.408Z,16.10
2018-04-23T05:23:17.175Z,16.00
2018-04-23T05:25:45.460Z,15.90
2018-04-23T05:28:12.927Z,15.90
2018-04-23T05:30:40.404Z,16.00
2018-04-23T05:33:07.879Z,16.00
2018-04-23T05:35:36.116Z,16.20
2018-04-23T05:38:03.576Z,16.20
2018-04-23T05:40:31.069Z,16.20
2018-04-23T05:42:58.505Z,16.30
2018-04-23T05:45:25.979Z,16.30
2018-04-23T05:47:53.451Z,16.40
2018-04-23T05:50:21.676Z,16.50
2018-04-23T05:52:49.140Z,16.50
2018-04-23T05:55:16.632Z,16.70
2018-04-23T05:57:44.855Z,16.70
2018-04-23T06:00:12.330Z,16.70
2018-04-23T06:02:39.801Z,16.60
2018-04-23T06:05:07.277Z,16.60
2018-04-23T06:07:34.728Z,16.50
2018-04-23T06:10:02.206Z,16.50
2018-04-23T06:12:30.435Z,16.50
2018-04-23T06:14:57.908Z,16.50
2018-04-23T06:17:25.364Z,16.40
2018-04-23T06:19:52.828Z,16.40
2018-04-23T06:22:20.288Z,16.20
2018-04-23T06:24:47.768Z,16.10
2018-04-23T06:27:16.054Z,16.10
2018-04-23T06:29:44.365Z,16.10
2018-04-23T06:32:11.832Z,16.10
2018-04-23T06:34:39.436Z,16.10
2018-04-23T06:37:06.892Z,16.10
2018-04-23T06:39:34.372Z,16.10
2018-04-23T06:42:02.636Z,15.90
2018-04-23T06:44:30.105Z,15.90
2018-04-23T06:46:58.388Z,16.00
2018-04-23T06:49:26.623Z,16.00
2018-04-23T06:51:54.093Z,16.00
2018-04-23T06:54:21.561Z,16.00
2018-04-23T06:56:49.268Z,16.00
2018-04-23T06:59:16.731Z,16.00
2018-04-23T07:01:44.247Z,15.90
2018-04-23T07:04:11.676Z,15.80
2018-04-23T07:06:39.511Z,15.80
2018-04-23T07:09:06.968Z,15.80
2018-04-23T07:11:34.441Z,15.80
2018-04-23T07:14:01.898Z,15.90
2018-04-23T07:16:29.373Z,15.90
2018-04-23T07:18:56.840Z,15.80
2018-04-23T07:21:24.308Z,15.90
2018-04-23T07:23:51.774Z,15.90
2018-04-23T07:26:19.236Z,16.00
2018-04-23T07:28:46.704Z,16.00
2018-04-23T07:31:14.948Z,16.20
2018-04-23T07:33:42.408Z,16.20
2018-04-23T07:36:09.885Z,16.20
2018-04-23T07:38:37.348Z,16.20
2018-04-23T07:41:04.824Z,16.20
2018-04-23T07:43:33.063Z,16.30
2018-04-23T07:46:00.528Z,16.30
2018-04-23T07:48:28.351Z,16.50
2018-04-23T07:50:55.812Z,16.50
2018-04-23T07:53:23.284Z,16.40
2018-04-23T07:55:50.771Z,16.40
2018-04-23T07:58:18.225Z,16.40
2018-04-23T08:00:45.697Z,16.30
2018-04-23T08:03:13.944Z,16.40
2018-04-23T08:05:41.421Z,16.40
2018-04-23T08:08:08.880Z,16.40
2018-04-23T08:10:36.356Z,16.40
2018-04-23T08:13:04.596Z,16.30
2018-04-23T08:15:32.076Z,16.30
2018-04-23T08:17:59.537Z,16.50
2018-04-23T08:20:27.017Z,16.60
2018-04-23T08:22:55.247Z,16.70
2018-04-23T08:25:22.771Z,16.70
2018-04-23T08:27:50.180Z,16.80
2018-04-23T08:30:17.660Z,16.80
2018-04-23T08:32:45.901Z,17.00
2018-04-23T08:35:13.372Z,17.00
2018-04-23T08:37:40.832Z,16.80
2018-04-23T08:40:08.305Z,16.90
2018-04-23T08:42:35.780Z,16.90
2018-04-23T08:45:04.006Z,17.10
2018-04-23T08:47:31.481Z,17.10
2018-04-23T08:49:58.946Z,17.30
2018-04-23T08:52:26.426Z,17.60
2018-04-23T08:54:53.924Z,17.60
2018-04-23T08:57:21.394Z,17.70
2018-04-23T08:59:52.124Z,17.90
2018-04-23T09:02:19.595Z,18.00
2018-04-23T09:04:47.063Z,18.00
2018-04-23T09:07:14.539Z,18.30
2018-04-23T09:09:41.999Z,18.30
2018-04-23T09:12:09.473Z,18.30
2018-04-23T09:14:37.715Z,18.30
2018-04-23T09:17:05.189Z,18.30
2018-04-23T09:19:32.675Z,18.20
2018-04-23T09:22:00.928Z,18.10
2018-04-23T09:24:28.393Z,18.00
2018-04-23T09:26:55.864Z,18.10
2018-04-23T09:29:24.115Z,18.40
2018-04-23T09:31:51.598Z,18.30
2018-04-23T09:34:19.830Z,18.50
2018-04-23T09:36:47.300Z,18.50
2018-04-23T09:39:14.772Z,18.60
2018-04-23T09:41:42.245Z,18.40
2018-04-23T09:44:10.489Z,18.30
2018-04-23T09:46:37.961Z,18.30
2018-04-23T09:49:05.428Z,18.60
2018-04-23T09:51:33.264Z,18.60
2018-04-23T09:54:00.749Z,18.70
2018-04-23T09:56:28.235Z,18.70
2018-04-23T09:58:56.480Z,18.80
2018-04-23T10:01:23.956Z,18.70
2018-04-23T10:03:52.187Z,18.70
2018-04-23T10:06:19.673Z,18.70
2018-04-23T10:08:47.150Z,18.50
2018-04-23T10:11:14.623Z,18.50
2018-04-23T10:13:42.852Z,18.60
2018-04-23T10:16:10.340Z,18.50
2018-04-23T10:18:37.802Z,18.60
2018-04-23T10:21:05.613Z,18.70
2018-04-23T10:23:33.075Z,18.50
2018-04-23T10:26:00.564Z,18.50
2018-04-23T10:28:28.037Z,18.50
2018-04-23T10:30:55.547Z,18.60
2018-04-23T10:33:23.001Z,18.90
2018-04-23T10:35:50.484Z,18.90
2018-04-23T10:38:18.234Z,18.90
2018-04-23T10:40:45.720Z,19.10
2018-04-23T10:43:13.190Z,19.50
2018-04-23T10:45:40.653Z,19.70
2018-04-23T10:48:08.129Z,20.00
2018-04-23T10:50:36.369Z,20.00
2018-04-23T10:53:03.841Z,20.00
2018-04-23T10:55:32.209Z,20.30
2018-04-23T10:57:59.677Z,20.50
2018-04-23T11:00:27.145Z,20.40
2018-04-23T11:02:55.010Z,20.40
2018-04-23T11:05:22.469Z,20.30
2018-04-23T11:07:49.946Z,20.10
2018-04-23T11:10:18.171Z,19.70
2018-04-23T11:12:45.647Z,19.70
2018-04-23T11:15:13.104Z,19.70
2018-04-23T11:17:40.576Z,19.50
2018-04-23T11:20:08.051Z,19.50
2018-04-23T11:22:35.521Z,19.50
2018-04-23T11:25:03.752Z,19.90
2018-04-23T11:27:31.247Z,19.90
2018-04-23T11:29:58.737Z,19.80
2018-04-23T11:32:26.237Z,19.90
2018-04-23T11:34:53.774Z,20.00
2018-04-23T11:37:21.284Z,20.30
2018-04-23T11:39:48.744Z,20.40
2018-04-23T11:42:17.019Z,20.00
2018-04-23T11:44:44.488Z,20.00
2018-04-23T11:47:12.798Z,19.30
2018-04-23T11:49:40.551Z,19.30
2018-04-23T11:52:08.109Z,19.40
2018-04-23T11:54:35.585Z,19.40
2018-04-23T11:57:03.412Z,19.60
2018-04-23T11:59:31.790Z,19.40
2018-04-23T12:02:00.388Z,19.30
2018-04-23T12:04:28.661Z,19.20
2018-04-23T12:06:56.154Z,19.20
2018-04-23T12:09:23.644Z,19.20
2018-04-23T12:11:51.282Z,18.90
2018-04-23T12:14:18.783Z,19.10
2018-04-23T12:16:46.325Z,19.10
2018-04-23T12:19:14.642Z,19.20
2018-04-23T12:21:42.152Z,19.40
2018-04-23T12:24:09.609Z,19.70
2018-04-23T12:26:37.080Z,19.50
2018-04-23T12:29:04.544Z,19.40
2018-04-23T12:31:32.029Z,19.40
2018-04-23T12:34:00.285Z,19.60
2018-04-23T12:36:27.749Z,19.60
2018-04-23T12:38:55.262Z,19.50
2018-04-23T12:41:22.740Z,19.50
2018-04-23T12:43:50.237Z,19.70
2018-04-23T12:46:17.761Z,20.00
2018-04-23T12:48:45.204Z,20.30
2018-04-23T12:51:12.674Z,20.30
2018-04-23T12:53:40.135Z,20.40
2018-04-23T12:56:07.596Z,20.30
2018-04-23T12:58:35.091Z,20.50
2018-04-23T13:01:02.557Z,20.60
2018-04-23T13:03:30.796Z,20.60
2018-04-23T13:05:58.298Z,20.60
2018-04-23T13:08:26.533Z,20.60
2018-04-23T13:10:54.004Z,20.60
2018-04-23T13:13:21.497Z,20.50
2018-04-23T13:15:48.965Z,20.30
2018-04-23T13:18:16.452Z,20.10
2018-04-23T13:20:43.917Z,19.90
2018-04-23T13:23:11.413Z,19.70
2018-04-23T13:25:39.644Z,19.80
2018-04-23T13:28:07.112Z,19.70
2018-04-23T13:30:34.568Z,19.90
2018-04-23T13:33:02.045Z,19.90
2018-04-23T13:35:29.509Z,19.90
2018-04-23T13:37:56.983Z,19.80
2018-04-23T13:40:25.243Z,19.80
2018-04-23T13:42:52.725Z,19.80
2018-04-23T13:45:20.964Z,19.70
2018-04-23T13:47:48.425Z,19.70
2018-04-23T13:50:15.907Z,19.70
2018-04-23T13:52:43.376Z,19.70
2018-04-23T13:55:11.604Z,19.80
2018-04-23T13:57:39.076Z,19.70
2018-04-23T14:00:06.541Z,19.90
2018-04-23T14:02:34.011Z,20.00
2018-04-23T14:05:01.475Z,19.90
2018-04-23T14:07:28.933Z,19.80
2018-04-23T14:09:56.393Z,20.00
2018-04-23T14:12:23.863Z,20.20
2018-04-23T14:14:52.086Z,20.80
2018-04-23T14:17:19.567Z,20.80
2018-04-23T14:19:47.030Z,20.80
2018-04-23T14:22:14.504Z,20.80
2018-04-23T14:24:41.972Z,20.50
2018-04-23T14:27:09.452Z,20.50
2018-04-23T14:29:36.920Z,20.40
2018-04-23T14:32:04.385Z,20.50
2018-04-23T14:34:31.876Z,20.60
2018-04-23T14:36:59.332Z,20.60
2018-04-23T14:39:26.803Z,20.50
2018-04-23T14:41:54.285Z,20.50
2018-04-23T14:44:22.513Z,20.60
2018-04-23T14:46:49.977Z,20.60
2018-04-23T14:49:17.493Z,20.50
2018-04-23T14:51:44.944Z,20.50
2018-04-23T14:54:12.428Z,20.50
2018-04-23T14:56:39.898Z,20.40
2018-04-23T14:59:07.365Z,20.30
2018-04-23T15:01:34.828Z,20.30
2018-04-23T15:04:03.204Z,20.30
2018-04-23T15:06:30.681Z,20.20
2018-04-23T15:08:58.162Z,20.10
2018-04-23T15:11:26.385Z,20.10
2018-04-23T15:13:53.864Z,20.10
2018-04-23T15:16:21.321Z,20.20
2018-04-23T15:18:48.792Z,20.00
2018-04-23T15:21:16.253Z,19.80
2018-04-23T15:23:43.749Z,19.70
2018-04-23T15:26:11.214Z,19.70
2018-04-23T15:28:38.685Z,19.90
2018-04-23T15:31:06.144Z,20.00
2018-04-23T15:33:33.942Z,19.90
2018-04-23T15:36:02.199Z,19.60
2018-04-23T15:38:29.679Z,19.70
2018-04-23T15:40:57.133Z,19.80
2018-04-23T15:43:24.602Z,20.00
2018-04-23T15:45:52.099Z,20.00
2018-04-23T15:48:19.613Z,20.10
2018-04-23T15:50:47.084Z,20.20
2018-04-23T15:53:14.651Z,20.10
2018-04-23T15:55:42.132Z,20.20
2018-04-23T15:58:10.408Z,20.10
2018-04-23T16:00:38.648Z,20.10
2018-04-23T16:03:06.164Z,20.10
2018-04-23T16:05:33.729Z,20.20
2018-04-23T16:08:01.382Z,20.00
2018-04-23T16:10:28.833Z,19.90
2018-04-23T16:12:56.355Z,19.90
2018-04-23T16:15:23.906Z,20.00
2018-04-23T16:17:51.474Z,20.00
2018-04-23T16:20:18.984Z,20.10
2018-04-23T16:22:46.538Z,19.90
2018-04-23T16:25:14.032Z,19.90
2018-04-23T16:27:41.567Z,19.90
2018-04-23T16:30:09.187Z,19.80
2018-04-23T16:32:36.733Z,19.70
2018-04-23T16:35:04.398Z,19.50
2018-04-23T16:37:32.657Z,19.40
2018-04-23T16:40:00.215Z,19.30
2018-04-23T16:42:28.492Z,19.00
2018-04-23T16:44:55.970Z,19.00
2018-04-23T16:47:23.622Z,18.90
2018-04-23T16:49:51.184Z,18.90
2018-04-23T16:52:18.649Z,19.00
2018-04-23T16:54:46.140Z,18.90
2018-04-23T16:57:13.579Z,18.90
2018-04-23T16:59:41.041Z,18.80
2018-04-23T17:02:08.599Z,18.60
2018-04-23T17:04:37.001Z,18.60
2018-04-23T17:07:05.367Z,18.50
2018-04-23T17:09:32.834Z,18.50
2018-04-23T17:12:01.184Z,18.40
2018-04-23T17:14:28.758Z,18.40
2018-04-23T17:16:56.268Z,18.30
2018-04-23T17:19:23.735Z,18.30
2018-04-23T17:21:51.263Z,18.30
2018-04-23T17:24:18.866Z,18.30
2018-04-23T17:26:46.333Z,18.30
2018-04-23T17:29:13.864Z,18.20
2018-04-23T17:31:41.321Z,18.10
2018-04-23T17:34:08.818Z,18.10
2018-04-23T17:36:36.423Z,18.10
2018-04-23T17:39:03.940Z,18.10
2018-04-23T17:41:31.543Z,18.10
2018-04-23T17:44:00.000Z,17.90
2018-04-23T17:46:28.247Z,17.90
2018-04-23T17:48:55.747Z,17.90
2018-04-23T17:51:23.985Z,17.80
2018-04-23T17:53:52.211Z,17.80
2018-04-23T17:56:20.433Z,17.70
2018-04-23T17:58:47.906Z,17.60
2018-04-23T18:01:15.372Z,17.50
2018-04-23T18:03:42.849Z,17.50
2018-04-23T18:06:10.304Z,17.50
2018-04-23T18:08:37.773Z,17.50
2018-04-23T18:11:06.065Z,17.40
2018-04-23T18:13:34.264Z,17.30
2018-04-23T18:16:02.723Z,17.30
2018-04-23T18:18:30.192Z,17.40
2018-04-23T18:20:57.677Z,17.30
2018-04-23T18:23:25.141Z,17.30
2018-04-23T18:25:52.609Z,17.20
2018-04-23T18:28:20.099Z,17.20
2018-04-23T18:30:48.408Z,17.10
2018-04-23T18:33:15.927Z,17.00
2018-04-23T18:35:43.432Z,16.90
2018-04-23T18:38:11.008Z,17.00
2018-04-23T18:40:38.479Z,16.90
2018-04-23T18:43:06.001Z,16.90
2018-04-23T18:45:33.958Z,16.70
2018-04-23T18:48:01.459Z,16.70
2018-04-23T18:50:29.165Z,16.60
2018-04-23T18:52:56.826Z,16.50
2018-04-23T18:55:25.249Z,16.50
2018-04-23T18:57:52.712Z,16.50
2018-04-23T19:00:20.189Z,16.40
2018-04-23T19:02:47.749Z,16.30
2018-04-23T19:05:15.335Z,16.30
2018-04-23T19:07:42.799Z,16.20
2018-04-23T19:10:10.824Z,16.10
2018-04-23T19:12:38.281Z,16.00
2018-04-23T19:15:05.744Z,16.10
2018-04-23T19:17:33.234Z,16.00
2018-04-23T19:20:00.700Z,16.00
2018-04-23T19:22:28.163Z,16.00
2018-04-23T19:24:55.694Z,16.00
2018-04-23T19:27:23.323Z,16.00
2018-04-23T19:29:51.195Z,15.90
2018-04-23T19:32:18.688Z,15.90
2018-04-23T19:34:46.244Z,15.80
2018-04-23T19:37:13.714Z,15.70
2018-04-23T19:39:41.213Z,15.40
2018-04-23T19:42:08.734Z,15.30
2018-04-23T19:44:37.075Z,15.30
2018-04-23T19:47:04.631Z,15.30
2018-04-23T19:49:32.892Z,15.10
2018-04-23T19:52:00.471Z,15.10
2018-04-23T19:54:27.928Z,15.00
2018-04-23T19:56:55.389Z,14.90
2018-04-23T19:59:22.876Z,14.70
2018-04-23T20:01:50.339Z,14.60
2018-04-23T20:04:18.739Z,14.50
2018-04-23T20:06:46.211Z,14.40
2018-04-23T20:09:14.446Z,14.20
2018-04-23T20:11:41.908Z,14.10
2018-04-23T20:14:09.383Z,14.10
2018-04-23T20:16:36.852Z,14.00
2018-04-23T20:19:04.341Z,14.00
2018-04-23T20:21:31.788Z,13.90
2018-04-23T20:24:00.041Z,13.70
2018-04-23T20:26:27.505Z,13.70
2018-04-23T20:28:54.965Z,13.70
2018-04-23T20:31:23.203Z,13.70
2018-04-23T20:33:50.684Z,13.70
2018-04-23T20:36:18.156Z,13.70
2018-04-23T20:38:46.400Z,13.70
2018-04-23T20:41:13.881Z,13.70
2018-04-23T20:43:41.345Z,13.60
2018-04-23T20:46:08.809Z,13.50
2018-04-23T20:48:37.049Z,13.40
2018-04-23T20:51:04.520Z,13.30
2018-04-23T20:53:31.976Z,13.30
2018-04-23T20:55:59.456Z,13.30
2018-04-23T20:58:26.917Z,13.30
2018-04-23T21:00:55.156Z,13.30
2018-04-23T21:03:22.622Z,13.20
2018-04-23T21:05:50.092Z,13.30
2018-04-23T21:08:17.918Z,13.30
2018-04-23T21:10:45.798Z,13.30
2018-04-23T21:13:13.267Z,13.30
2018-04-23T21:15:40.756Z,13.30
2018-04-23T21:18:08.226Z,13.30
2018-04-23T21:20:36.751Z,13.30
2018-04-23T21:23:04.207Z,13.20
2018-04-23T21:25:31.668Z,13.20
2018-04-23T21:27:59.154Z,13.30
2018-04-23T21:30:26.622Z,13.30
2018-04-23T21:32:54.090Z,13.20
2018-04-23T21:35:21.552Z,13.10
2018-04-23T21:37:49.792Z,12.90
2018-04-23T21:40:17.255Z,12.90
2018-04-23T21:42:44.722Z,12.90
2018-04-23T21:45:12.193Z,12.90
2018-04-23T21:47:39.714Z,12.90
2018-04-23T21:50:07.996Z,12.90
2018-04-23T21:52:35.479Z,12.90
2018-04-23T21:55:02.937Z,12.80
2018-04-23T21:57:30.401Z,12.80
2018-04-23T21:59:57.860Z,12.80
2018-04-23T22:02:25.325Z,12.70
2018-04-23T22:04:52.793Z,12.60
2018-04-23T22:07:20.252Z,12.60
2018-04-23T22:09:47.724Z,12.50
2018-04-23T22:12:15.941Z,12.40
2018-04-23T22:14:43.414Z,12.40
2018-04-23T22:17:10.899Z,12.40
2018-04-23T22:19:38.378Z,12.30
2018-04-23T22:22:06.603Z,12.20
2018-04-23T22:24:34.063Z,12.10
2018-04-23T22:27:01.536Z,12.20
2018-04-23T22:29:28.992Z,12.10
2018-04-23T22:31:56.468Z,12.10
2018-04-23T22:34:23.932Z,12.00
2018-04-23T22:36:52.181Z,12.00
2018-04-23T22:39:19.636Z,11.90
2018-04-23T22:41:47.575Z,11.90
2018-04-23T22:44:15.044Z,11.80
2018-04-23T22:46:42.521Z,11.80
2018-04-23T22:49:09.976Z,11.60
2018-04-23T22:51:37.481Z,11.60
2018-04-23T22:54:04.949Z,11.50
2018-04-23T22:56:32.964Z,11.50
2018-04-23T22:59:01.622Z,11.30
2018-04-23T23:01:29.088Z,11.30
2018-04-23T23:03:56.556Z,11.30
2018-04-23T23:06:24.039Z,11.40
2018-04-23T23:08:51.493Z,11.60
2018-04-23T23:11:19.738Z,11.50
2018-04-23T23:13:47.217Z,11.50
2018-04-23T23:16:14.728Z,11.60
2018-04-23T23:18:42.965Z,11.70
2018-04-23T23:21:10.441Z,11.70
2018-04-23T23:23:37.915Z,11.70
2018-04-23T23:26:06.195Z,11.80
2018-04-23T23:28:33.666Z,11.70
2018-04-23T23:31:01.141Z,11.80
2018-04-23T23:33:28.618Z,11.80
2018-04-23T23:35:56.099Z,11.80
2018-04-23T23:38:23.565Z,11.80
2018-04-23T23:40:51.039Z,11.80
2018-04-23T23:43:19.412Z,11.80
2018-04-23T23:45:47.681Z,11.70
2018-04-23T23:48:15.153Z,11.70
2018-04-23T23:50:43.393Z,11.70
2018-04-23T23:53:10.861Z,11.60
2018-04-23T23:55:38.337Z,11.60
2018-04-23T23:58:05.814Z,11.60
